CheckWX is a tool to help pilots better visualize weather data.  It is not intended as a substitute for an official pre-flight weather briefing.

14:04:05 UTC

KPJC METAR
Zelienople Municipal Airport
Zelienople, Pennsylvania, USA
Current

29 mins ago

KPJC 231335Z AUTO 00000KT 10SM CLR M07/M07 A3029 RMK AO2
Observed
Jan-23 @ 13:35 UTC
Visibility
10 SM
Flight Rules
VFR
Cloud Levels
  • Clear skies
Temperature
-7°C / 19°F
Dewpoint
-7°C / 19°F
Humidity
100%
Altimeter
30.29" Hg
Pressure
1025.72 hPa
Previous

49 mins ago

KPJC 231315Z AUTO 00000KT 7SM CLR M07/M07 A3029 RMK AO2
Observed
Jan-23 @ 13:15 UTC
Visibility
7 SM
Flight Rules
VFR
Cloud Levels
  • Clear skies
Temperature
-7°C / 19°F
Dewpoint
-7°C / 19°F
Humidity
100%
Altimeter
30.29" Hg
Pressure
1025.72 hPa
Previous

1 hour ago

KPJC 231255Z AUTO 00000KT 10SM CLR M08/M08 A3028 RMK AO2
Observed
Jan-23 @ 12:55 UTC
Visibility
10 SM
Flight Rules
VFR
Cloud Levels
  • Clear skies
Temperature
-8°C / 18°F
Dewpoint
-8°C / 18°F
Humidity
100%
Altimeter
30.28" Hg
Pressure
1025.42 hPa